エカテリンブルク の空港の天気 - METARとTAF

コルツォヴォ空港 ( USSS / SVX ) - ロシア エカテリンブルク
飛行場実況気象(Metar)
観測時間02/28 01:00 +05 (02/27 20:00 UTC)
風向・風速南南東 3m/s
視程10km以上
天気現象弱い雪
全天の8割程度の雲 雲底高度 850m
気温-7℃
湿度86%
気圧1009hPa
METARUSSS 272000Z 15003MPS 9999 -SN BKN028 M07/M09 Q1009 R26R/190050 NOSIG RMK QFE736/0981
過去の天気等 Google飛行場航空写真 Wunderground天気予報

過去48時間のMETAR

飛行場予報(TAF)
発表時間: 2/28 00:54 +05 (2/27 19:54 UTC)
予報対象時間: 28日2時 +05 ~ 1日2時 +05
風向・風速南 4m/s
視程2,100m
天気現象弱いしゅう雪
全天の8割程度の雲 雲底高度 300m
全天の4割程度の積乱雲 雲底高度 610m
TAF USSS 271954Z 2721/2821 17004MPS 2100 -SHSN BKN010 SCT020CB